sensor_id;sensor_type;location;lat;lon;timestamp;pressure;altitude;pressure_sealevel;temperature
68939;BMP180;59064;45.294;11.816;2024-01-10T00:01:33;102403.40;;;1.16
68939;BMP180;59064;45.294;11.816;2024-01-10T00:03:59;102412.00;;;1.10
68939;BMP180;59064;45.294;11.816;2024-01-10T00:06:24;102406.40;;;1.10
68939;BMP180;59064;45.294;11.816;2024-01-10T00:08:51;102409.60;;;1.02
68939;BMP180;59064;45.294;11.816;2024-01-10T00:11:16;102408.20;;;1.02
68939;BMP180;59064;45.294;11.816;2024-01-10T00:13:42;102411.80;;;1.08
68939;BMP180;59064;45.294;11.816;2024-01-10T00:16:07;102414.40;;;1.10
68939;BMP180;59064;45.294;11.816;2024-01-10T00:18:34;102416.00;;;1.10
68939;BMP180;59064;45.294;11.816;2024-01-10T00:20:59;102419.80;;;1.10
68939;BMP180;59064;45.294;11.816;2024-01-10T00:23:25;102412.40;;;1.10
68939;BMP180;59064;45.294;11.816;2024-01-10T00:25:51;102412.20;;;1.18
68939;BMP180;59064;45.294;11.816;2024-01-10T00:28:16;102416.40;;;1.10
68939;BMP180;59064;45.294;11.816;2024-01-10T00:30:44;102419.00;;;1.16
68939;BMP180;59064;45.294;11.816;2024-01-10T00:33:10;102415.20;;;1.10
68939;BMP180;59064;45.294;11.816;2024-01-10T00:35:37;102410.40;;;1.10
68939;BMP180;59064;45.294;11.816;2024-01-10T00:38:03;102407.20;;;1.10
68939;BMP180;59064;45.294;11.816;2024-01-10T00:40:28;102412.20;;;1.10
68939;BMP180;59064;45.294;11.816;2024-01-10T00:42:54;102416.40;;;1.10
68939;BMP180;59064;45.294;11.816;2024-01-10T00:45:20;102413.00;;;1.12
68939;BMP180;59064;45.294;11.816;2024-01-10T00:47:48;102417.00;;;1.20
68939;BMP180;59064;45.294;11.816;2024-01-10T00:50:13;102424.60;;;1.20
68939;BMP180;59064;45.294;11.816;2024-01-10T00:52:39;102418.60;;;1.22
68939;BMP180;59064;45.294;11.816;2024-01-10T00:55:05;102419.20;;;1.30
68939;BMP180;59064;45.294;11.816;2024-01-10T00:57:31;102418.40;;;1.30
68939;BMP180;59064;45.294;11.816;2024-01-10T00:59:56;102424.40;;;1.30
68939;BMP180;59064;45.294;11.816;2024-01-10T01:02:22;102413.00;;;1.30
68939;BMP180;59064;45.294;11.816;2024-01-10T01:04:47;102413.80;;;1.30
68939;BMP180;59064;45.294;11.816;2024-01-10T01:07:13;102416.60;;;1.28
68939;BMP180;59064;45.294;11.816;2024-01-10T01:09:38;102420.20;;;1.20
68939;BMP180;59064;45.294;11.816;2024-01-10T01:12:04;102418.60;;;1.20
68939;BMP180;59064;45.294;11.816;2024-01-10T01:14:30;102418.20;;;1.20
68939;BMP180;59064;45.294;11.816;2024-01-10T01:16:55;102411.80;;;1.10
68939;BMP180;59064;45.294;11.816;2024-01-10T01:19:21;102417.80;;;1.10
68939;BMP180;59064;45.294;11.816;2024-01-10T01:21:46;102416.60;;;1.06
68939;BMP180;59064;45.294;11.816;2024-01-10T01:24:12;102413.40;;;1.00
68939;BMP180;59064;45.294;11.816;2024-01-10T01:26:37;102413.80;;;0.90
68939;BMP180;59064;45.294;11.816;2024-01-10T01:29:03;102415.80;;;0.90
68939;BMP180;59064;45.294;11.816;2024-01-10T01:31:29;102414.60;;;0.86
68939;BMP180;59064;45.294;11.816;2024-01-10T01:33:55;102418.00;;;0.80
68939;BMP180;59064;45.294;11.816;2024-01-10T01:36:20;102416.80;;;0.80
68939;BMP180;59064;45.294;11.816;2024-01-10T01:38:46;102422.60;;;0.80
68939;BMP180;59064;45.294;11.816;2024-01-10T01:41:11;102425.60;;;0.80
68939;BMP180;59064;45.294;11.816;2024-01-10T01:43:38;102439.60;;;0.80
68939;BMP180;59064;45.294;11.816;2024-01-10T01:46:03;102434.20;;;0.80
68939;BMP180;59064;45.294;11.816;2024-01-10T01:48:29;102432.20;;;0.80
68939;BMP180;59064;45.294;11.816;2024-01-10T01:51:02;102432.40;;;0.90
68939;BMP180;59064;45.294;11.816;2024-01-10T01:53:30;102433.40;;;0.90
68939;BMP180;59064;45.294;11.816;2024-01-10T01:55:56;102432.80;;;0.90
68939;BMP180;59064;45.294;11.816;2024-01-10T01:58:22;102435.00;;;0.88
68939;BMP180;59064;45.294;11.816;2024-01-10T02:00:49;102432.80;;;0.90
68939;BMP180;59064;45.294;11.816;2024-01-10T02:03:15;102428.80;;;0.90
68939;BMP180;59064;45.294;11.816;2024-01-10T02:05:41;102426.80;;;0.90
68939;BMP180;59064;45.294;11.816;2024-01-10T02:08:08;102424.00;;;0.98
68939;BMP180;59064;45.294;11.816;2024-01-10T02:10:34;102431.60;;;1.00
68939;BMP180;59064;45.294;11.816;2024-01-10T02:13:00;102429.00;;;0.98
68939;BMP180;59064;45.294;11.816;2024-01-10T02:15:26;102431.60;;;0.94
68939;BMP180;59064;45.294;11.816;2024-01-10T02:17:52;102431.00;;;0.90
68939;BMP180;59064;45.294;11.816;2024-01-10T02:20:18;102431.80;;;0.90
68939;BMP180;59064;45.294;11.816;2024-01-10T02:22:44;102427.60;;;0.96
68939;BMP180;59064;45.294;11.816;2024-01-10T02:25:13;102419.80;;;0.90
68939;BMP180;59064;45.294;11.816;2024-01-10T02:27:41;102414.40;;;1.00
68939;BMP180;59064;45.294;11.816;2024-01-10T02:30:08;102418.00;;;1.00
68939;BMP180;59064;45.294;11.816;2024-01-10T02:32:35;102418.80;;;1.00
68939;BMP180;59064;45.294;11.816;2024-01-10T02:35:01;102424.80;;;1.00
68939;BMP180;59064;45.294;11.816;2024-01-10T02:37:26;102416.60;;;1.00
68939;BMP180;59064;45.294;11.816;2024-01-10T02:39:52;102423.20;;;0.90
68939;BMP180;59064;45.294;11.816;2024-01-10T02:42:18;102413.60;;;0.90
68939;BMP180;59064;45.294;11.816;2024-01-10T02:44:43;102415.20;;;0.90
68939;BMP180;59064;45.294;11.816;2024-01-10T02:47:10;102413.80;;;0.82
68939;BMP180;59064;45.294;11.816;2024-01-10T02:49:36;102411.80;;;0.80
68939;BMP180;59064;45.294;11.816;2024-01-10T02:52:02;102404.40;;;0.80
68939;BMP180;59064;45.294;11.816;2024-01-10T02:54:27;102403.80;;;0.80
68939;BMP180;59064;45.294;11.816;2024-01-10T02:56:53;102400.20;;;0.70
68939;BMP180;59064;45.294;11.816;2024-01-10T02:59:18;102397.00;;;0.70
68939;BMP180;59064;45.294;11.816;2024-01-10T03:01:44;102394.60;;;0.78
68939;BMP180;59064;45.294;11.816;2024-01-10T03:04:10;102398.00;;;0.80
68939;BMP180;59064;45.294;11.816;2024-01-10T03:06:35;102398.40;;;0.80
68939;BMP180;59064;45.294;11.816;2024-01-10T03:09:01;102397.40;;;0.72
68939;BMP180;59064;45.294;11.816;2024-01-10T03:11:27;102397.40;;;0.70
68939;BMP180;59064;45.294;11.816;2024-01-10T03:14:07;102403.60;;;0.70
68939;BMP180;59064;45.294;11.816;2024-01-10T03:16:33;102403.20;;;0.70
68939;BMP180;59064;45.294;11.816;2024-01-10T03:18:59;102401.40;;;0.70
68939;BMP180;59064;45.294;11.816;2024-01-10T03:21:25;102398.20;;;0.70
68939;BMP180;59064;45.294;11.816;2024-01-10T03:24:07;102402.00;;;0.68
68939;BMP180;59064;45.294;11.816;2024-01-10T03:26:33;102401.40;;;0.68
68939;BMP180;59064;45.294;11.816;2024-01-10T03:28:59;102398.60;;;0.68
68939;BMP180;59064;45.294;11.816;2024-01-10T03:31:27;102401.60;;;0.70
68939;BMP180;59064;45.294;11.816;2024-01-10T03:33:53;102402.40;;;0.60
68939;BMP180;59064;45.294;11.816;2024-01-10T03:36:19;102406.40;;;0.60
68939;BMP180;59064;45.294;11.816;2024-01-10T03:38:45;102407.40;;;0.60
68939;BMP180;59064;45.294;11.816;2024-01-10T03:41:14;102412.00;;;0.60
68939;BMP180;59064;45.294;11.816;2024-01-10T03:43:40;102408.80;;;0.60
68939;BMP180;59064;45.294;11.816;2024-01-10T03:46:06;102411.80;;;0.60
68939;BMP180;59064;45.294;11.816;2024-01-10T03:48:34;102405.60;;;0.60
68939;BMP180;59064;45.294;11.816;2024-01-10T03:51:00;102409.00;;;0.60
68939;BMP180;59064;45.294;11.816;2024-01-10T03:53:26;102405.00;;;0.60
68939;BMP180;59064;45.294;11.816;2024-01-10T03:55:52;102406.80;;;0.60
68939;BMP180;59064;45.294;11.816;2024-01-10T03:58:18;102400.00;;;0.60
68939;BMP180;59064;45.294;11.816;2024-01-10T04:00:44;102405.40;;;0.58
68939;BMP180;59064;45.294;11.816;2024-01-10T04:03:10;102410.40;;;0.60
68939;BMP180;59064;45.294;11.816;2024-01-10T04:05:35;102410.60;;;0.60
68939;BMP180;59064;45.294;11.816;2024-01-10T04:08:00;102408.00;;;0.60
68939;BMP180;59064;45.294;11.816;2024-01-10T04:10:26;102414.00;;;0.62
68939;BMP180;59064;45.294;11.816;2024-01-10T04:12:51;102415.40;;;0.60
68939;BMP180;59064;45.294;11.816;2024-01-10T04:15:17;102418.00;;;0.60
68939;BMP180;59064;45.294;11.816;2024-01-10T04:17:44;102420.00;;;0.60
68939;BMP180;59064;45.294;11.816;2024-01-10T04:20:09;102417.00;;;0.60
68939;BMP180;59064;45.294;11.816;2024-01-10T04:22:35;102416.80;;;0.70
68939;BMP180;59064;45.294;11.816;2024-01-10T04:25:04;102415.80;;;0.62
68939;BMP180;59064;45.294;11.816;2024-01-10T04:27:30;102416.40;;;0.70
68939;BMP180;59064;45.294;11.816;2024-01-10T04:29:56;102413.60;;;0.70
68939;BMP180;59064;45.294;11.816;2024-01-10T04:32:21;102410.60;;;0.70
68939;BMP180;59064;45.294;11.816;2024-01-10T04:34:47;102416.80;;;0.70
68939;BMP180;59064;45.294;11.816;2024-01-10T04:37:12;102421.60;;;0.70
68939;BMP180;59064;45.294;11.816;2024-01-10T04:39:39;102421.00;;;0.70
68939;BMP180;59064;45.294;11.816;2024-01-10T04:42:05;102419.20;;;0.70
68939;BMP180;59064;45.294;11.816;2024-01-10T04:44:31;102412.60;;;0.70
68939;BMP180;59064;45.294;11.816;2024-01-10T04:46:57;102414.00;;;0.78
68939;BMP180;59064;45.294;11.816;2024-01-10T04:49:22;102415.40;;;0.78
68939;BMP180;59064;45.294;11.816;2024-01-10T04:51:48;102419.00;;;0.72
68939;BMP180;59064;45.294;11.816;2024-01-10T04:54:13;102420.20;;;0.70
68939;BMP180;59064;45.294;11.816;2024-01-10T04:56:39;102420.80;;;0.70
68939;BMP180;59064;45.294;11.816;2024-01-10T04:59:05;102418.40;;;0.70
68939;BMP180;59064;45.294;11.816;2024-01-10T05:01:31;102414.40;;;0.70
68939;BMP180;59064;45.294;11.816;2024-01-10T05:03:57;102417.20;;;0.70
68939;BMP180;59064;45.294;11.816;2024-01-10T05:06:23;102423.20;;;0.70
68939;BMP180;59064;45.294;11.816;2024-01-10T05:08:49;102421.00;;;0.70
68939;BMP180;59064;45.294;11.816;2024-01-10T05:11:15;102430.80;;;0.70
68939;BMP180;59064;45.294;11.816;2024-01-10T05:13:41;102424.00;;;0.70
68939;BMP180;59064;45.294;11.816;2024-01-10T05:16:06;102430.00;;;0.80
68939;BMP180;59064;45.294;11.816;2024-01-10T05:18:32;102433.40;;;0.80
68939;BMP180;59064;45.294;11.816;2024-01-10T05:20:59;102440.20;;;0.88
68939;BMP180;59064;45.294;11.816;2024-01-10T05:23:25;102442.80;;;0.90
68939;BMP180;59064;45.294;11.816;2024-01-10T05:25:51;102449.60;;;0.90
68939;BMP180;59064;45.294;11.816;2024-01-10T05:28:16;102449.40;;;0.90
68939;BMP180;59064;45.294;11.816;2024-01-10T05:30:43;102453.40;;;0.90
68939;BMP180;59064;45.294;11.816;2024-01-10T05:33:08;102460.20;;;0.80
68939;BMP180;59064;45.294;11.816;2024-01-10T05:35:34;102457.20;;;0.80
68939;BMP180;59064;45.294;11.816;2024-01-10T05:38:01;102453.00;;;0.80
68939;BMP180;59064;45.294;11.816;2024-01-10T05:40:30;102454.20;;;0.70
68939;BMP180;59064;45.294;11.816;2024-01-10T05:42:57;102446.40;;;0.70
68939;BMP180;59064;45.294;11.816;2024-01-10T05:45:28;102446.60;;;0.70
68939;BMP180;59064;45.294;11.816;2024-01-10T05:47:54;102454.60;;;0.70
68939;BMP180;59064;45.294;11.816;2024-01-10T05:50:20;102456.40;;;0.70
68939;BMP180;59064;45.294;11.816;2024-01-10T05:52:47;102466.60;;;0.64
68939;BMP180;59064;45.294;11.816;2024-01-10T05:55:12;102467.80;;;0.60
68939;BMP180;59064;45.294;11.816;2024-01-10T05:57:38;102465.40;;;0.60
68939;BMP180;59064;45.294;11.816;2024-01-10T06:00:05;102461.60;;;0.60
68939;BMP180;59064;45.294;11.816;2024-01-10T06:02:36;102461.20;;;0.60
68939;BMP180;59064;45.294;11.816;2024-01-10T06:05:07;102456.60;;;0.60
68939;BMP180;59064;45.294;11.816;2024-01-10T06:07:37;102457.60;;;0.60
68939;BMP180;59064;45.294;11.816;2024-01-10T06:10:06;102446.60;;;0.60
68939;BMP180;59064;45.294;11.816;2024-01-10T06:12:32;102451.20;;;0.58
68939;BMP180;59064;45.294;11.816;2024-01-10T06:14:58;102449.20;;;0.52
68939;BMP180;59064;45.294;11.816;2024-01-10T06:17:23;102454.60;;;0.50
68939;BMP180;59064;45.294;11.816;2024-01-10T06:19:50;102459.80;;;0.50
68939;BMP180;59064;45.294;11.816;2024-01-10T06:22:16;102463.20;;;0.50
68939;BMP180;59064;45.294;11.816;2024-01-10T06:24:43;102463.00;;;0.50
68939;BMP180;59064;45.294;11.816;2024-01-10T06:27:09;102466.20;;;0.50
68939;BMP180;59064;45.294;11.816;2024-01-10T06:29:35;102472.20;;;0.50
68939;BMP180;59064;45.294;11.816;2024-01-10T06:32:03;102472.40;;;0.50
68939;BMP180;59064;45.294;11.816;2024-01-10T06:34:29;102474.40;;;0.50
68939;BMP180;59064;45.294;11.816;2024-01-10T06:36:54;102475.00;;;0.50
68939;BMP180;59064;45.294;11.816;2024-01-10T06:39:20;102476.40;;;0.52
68939;BMP180;59064;45.294;11.816;2024-01-10T06:41:49;102478.60;;;0.52
68939;BMP180;59064;45.294;11.816;2024-01-10T06:44:15;102482.40;;;0.52
68939;BMP180;59064;45.294;11.816;2024-01-10T06:46:43;102492.80;;;0.60
68939;BMP180;59064;45.294;11.816;2024-01-10T06:49:09;102488.40;;;0.58
68939;BMP180;59064;45.294;11.816;2024-01-10T06:51:35;102493.00;;;0.60
68939;BMP180;59064;45.294;11.816;2024-01-10T06:54:00;102497.00;;;0.52
68939;BMP180;59064;45.294;11.816;2024-01-10T06:56:32;102496.20;;;0.50
68939;BMP180;59064;45.294;11.816;2024-01-10T06:59:00;102499.80;;;0.50
68939;BMP180;59064;45.294;11.816;2024-01-10T07:01:27;102505.60;;;0.50
68939;BMP180;59064;45.294;11.816;2024-01-10T07:03:53;102503.80;;;0.50
68939;BMP180;59064;45.294;11.816;2024-01-10T07:06:22;102505.40;;;0.50
68939;BMP180;59064;45.294;11.816;2024-01-10T07:08:49;102508.60;;;0.50
68939;BMP180;59064;45.294;11.816;2024-01-10T07:11:18;102517.60;;;0.52
68939;BMP180;59064;45.294;11.816;2024-01-10T07:13:47;102519.00;;;0.60
68939;BMP180;59064;45.294;11.816;2024-01-10T07:16:12;102522.20;;;0.60
68939;BMP180;59064;45.294;11.816;2024-01-10T07:18:40;102526.60;;;0.60
68939;BMP180;59064;45.294;11.816;2024-01-10T07:21:09;102526.20;;;0.60
68939;BMP180;59064;45.294;11.816;2024-01-10T07:23:35;102533.40;;;0.60
68939;BMP180;59064;45.294;11.816;2024-01-10T07:26:03;102528.80;;;0.60
68939;BMP180;59064;45.294;11.816;2024-01-10T07:28:29;102531.40;;;0.60
68939;BMP180;59064;45.294;11.816;2024-01-10T07:30:55;102528.20;;;0.66
68939;BMP180;59064;45.294;11.816;2024-01-10T07:33:21;102535.20;;;0.70
68939;BMP180;59064;45.294;11.816;2024-01-10T07:35:47;102539.20;;;0.70
68939;BMP180;59064;45.294;11.816;2024-01-10T07:38:12;102547.20;;;0.70
68939;BMP180;59064;45.294;11.816;2024-01-10T07:40:38;102542.60;;;0.70
68939;BMP180;59064;45.294;11.816;2024-01-10T07:43:04;102550.60;;;0.70
68939;BMP180;59064;45.294;11.816;2024-01-10T07:45:29;102548.60;;;0.80
68939;BMP180;59064;45.294;11.816;2024-01-10T07:47:55;102548.20;;;0.88
68939;BMP180;59064;45.294;11.816;2024-01-10T07:50:20;102559.20;;;0.90
68939;BMP180;59064;45.294;11.816;2024-01-10T07:52:46;102553.60;;;1.00
68939;BMP180;59064;45.294;11.816;2024-01-10T07:55:12;102555.00;;;1.00
68939;BMP180;59064;45.294;11.816;2024-01-10T07:57:38;102559.20;;;1.10
68939;BMP180;59064;45.294;11.816;2024-01-10T08:00:07;102558.20;;;1.20
68939;BMP180;59064;45.294;11.816;2024-01-10T08:02:36;102564.00;;;1.30
68939;BMP180;59064;45.294;11.816;2024-01-10T08:05:02;102564.40;;;1.40
68939;BMP180;59064;45.294;11.816;2024-01-10T08:07:32;102565.60;;;1.52
68939;BMP180;59064;45.294;11.816;2024-01-10T08:10:06;102573.40;;;1.64
68939;BMP180;59064;45.294;11.816;2024-01-10T08:12:33;102574.00;;;1.72
68939;BMP180;59064;45.294;11.816;2024-01-10T08:14:58;102576.00;;;1.88
68939;BMP180;59064;45.294;11.816;2024-01-10T08:17:24;102573.60;;;1.90
68939;BMP180;59064;45.294;11.816;2024-01-10T08:19:49;102573.80;;;2.00
68939;BMP180;59064;45.294;11.816;2024-01-10T08:22:15;102583.00;;;2.02
68939;BMP180;59064;45.294;11.816;2024-01-10T08:24:41;102578.00;;;2.10
68939;BMP180;59064;45.294;11.816;2024-01-10T08:27:06;102586.20;;;2.18
68939;BMP180;59064;45.294;11.816;2024-01-10T08:29:33;102585.20;;;2.20
68939;BMP180;59064;45.294;11.816;2024-01-10T08:31:59;102589.60;;;2.28
68939;BMP180;59064;45.294;11.816;2024-01-10T08:34:24;102587.40;;;2.30
68939;BMP180;59064;45.294;11.816;2024-01-10T08:36:51;102593.80;;;2.30
68939;BMP180;59064;45.294;11.816;2024-01-10T08:39:17;102581.80;;;2.30
68939;BMP180;59064;45.294;11.816;2024-01-10T08:41:43;102588.60;;;2.40
68939;BMP180;59064;45.294;11.816;2024-01-10T08:44:11;102598.00;;;2.40
68939;BMP180;59064;45.294;11.816;2024-01-10T08:46:37;102599.60;;;2.48
68939;BMP180;59064;45.294;11.816;2024-01-10T08:49:03;102596.60;;;2.50
68939;BMP180;59064;45.294;11.816;2024-01-10T08:51:28;102595.20;;;2.60
68939;BMP180;59064;45.294;11.816;2024-01-10T08:53:54;102601.80;;;2.70
68939;BMP180;59064;45.294;11.816;2024-01-10T08:56:20;102596.20;;;2.70
68939;BMP180;59064;45.294;11.816;2024-01-10T08:58:46;102602.80;;;2.80
68939;BMP180;59064;45.294;11.816;2024-01-10T09:01:12;102596.00;;;2.86
68939;BMP180;59064;45.294;11.816;2024-01-10T09:03:37;102599.20;;;2.90
68939;BMP180;59064;45.294;11.816;2024-01-10T09:06:04;102603.00;;;2.92
68939;BMP180;59064;45.294;11.816;2024-01-10T09:08:30;102596.00;;;3.00
68939;BMP180;59064;45.294;11.816;2024-01-10T09:10:55;102595.40;;;3.08
68939;BMP180;59064;45.294;11.816;2024-01-10T09:13:21;102598.60;;;3.08
68939;BMP180;59064;45.294;11.816;2024-01-10T09:15:47;102603.00;;;3.20
68939;BMP180;59064;45.294;11.816;2024-01-10T09:18:13;102599.80;;;3.26
68939;BMP180;59064;45.294;11.816;2024-01-10T09:20:40;102595.80;;;3.30
68939;BMP180;59064;45.294;11.816;2024-01-10T09:23:05;102595.00;;;3.32
68939;BMP180;59064;45.294;11.816;2024-01-10T09:25:30;102599.00;;;3.40
68939;BMP180;59064;45.294;11.816;2024-01-10T09:27:56;102605.20;;;3.40
68939;BMP180;59064;45.294;11.816;2024-01-10T09:30:22;102598.60;;;3.40
68939;BMP180;59064;45.294;11.816;2024-01-10T09:32:50;102596.80;;;3.40
68939;BMP180;59064;45.294;11.816;2024-01-10T09:35:15;102598.40;;;3.44
68939;BMP180;59064;45.294;11.816;2024-01-10T09:37:41;102605.60;;;3.50
68939;BMP180;59064;45.294;11.816;2024-01-10T09:40:07;102608.60;;;3.64
68939;BMP180;59064;45.294;11.816;2024-01-10T09:42:33;102618.20;;;3.70
68939;BMP180;59064;45.294;11.816;2024-01-10T09:45:01;102616.00;;;3.78
68939;BMP180;59064;45.294;11.816;2024-01-10T09:47:29;102612.80;;;3.80
68939;BMP180;59064;45.294;11.816;2024-01-10T09:49:57;102622.80;;;3.90
68939;BMP180;59064;45.294;11.816;2024-01-10T09:52:27;102616.40;;;3.96
68939;BMP180;59064;45.294;11.816;2024-01-10T09:54:55;102617.80;;;3.96
68939;BMP180;59064;45.294;11.816;2024-01-10T09:57:24;102623.80;;;4.00
68939;BMP180;59064;45.294;11.816;2024-01-10T09:59:51;102616.20;;;4.02
68939;BMP180;59064;45.294;11.816;2024-01-10T10:02:18;102611.00;;;4.02
68939;BMP180;59064;45.294;11.816;2024-01-10T10:05:09;102618.80;;;4.08
68939;BMP180;59064;45.294;11.816;2024-01-10T10:07:48;102623.00;;;4.08
68939;BMP180;59064;45.294;11.816;2024-01-10T10:10:17;102621.20;;;4.10
68939;BMP180;59064;45.294;11.816;2024-01-10T10:12:48;102614.20;;;4.10
68939;BMP180;59064;45.294;11.816;2024-01-10T10:15:18;102612.20;;;4.14
68939;BMP180;59064;45.294;11.816;2024-01-10T10:17:46;102621.00;;;4.20
68939;BMP180;59064;45.294;11.816;2024-01-10T10:20:28;102606.20;;;4.20
68939;BMP180;59064;45.294;11.816;2024-01-10T10:23:04;102617.00;;;4.24
68939;BMP180;59064;45.294;11.816;2024-01-10T10:25:32;102615.40;;;4.34
68939;BMP180;59064;45.294;11.816;2024-01-10T10:27:59;102615.60;;;4.44
68939;BMP180;59064;45.294;11.816;2024-01-10T10:30:25;102608.00;;;4.40
68939;BMP180;59064;45.294;11.816;2024-01-10T10:32:51;102615.20;;;4.40
68939;BMP180;59064;45.294;11.816;2024-01-10T10:35:19;102609.60;;;4.40
68939;BMP180;59064;45.294;11.816;2024-01-10T10:37:54;102604.80;;;4.30
68939;BMP180;59064;45.294;11.816;2024-01-10T10:40:20;102613.00;;;4.32
68939;BMP180;59064;45.294;11.816;2024-01-10T10:42:48;102608.20;;;4.40
68939;BMP180;59064;45.294;11.816;2024-01-10T10:45:16;102603.80;;;4.30
68939;BMP180;59064;45.294;11.816;2024-01-10T10:47:46;102605.60;;;4.40
68939;BMP180;59064;45.294;11.816;2024-01-10T10:50:24;102596.00;;;4.40
68939;BMP180;59064;45.294;11.816;2024-01-10T10:52:52;102608.40;;;4.32
68939;BMP180;59064;45.294;11.816;2024-01-10T10:55:19;102598.00;;;4.40
68939;BMP180;59064;45.294;11.816;2024-01-10T10:57:45;102595.80;;;4.40
68939;BMP180;59064;45.294;11.816;2024-01-10T11:00:19;102595.00;;;4.50
68939;BMP180;59064;45.294;11.816;2024-01-10T11:02:46;102592.00;;;4.60
68939;BMP180;59064;45.294;11.816;2024-01-10T11:05:12;102595.60;;;4.64
68939;BMP180;59064;45.294;11.816;2024-01-10T11:07:39;102595.00;;;4.70
68939;BMP180;59064;45.294;11.816;2024-01-10T11:10:17;102583.80;;;4.72
68939;BMP180;59064;45.294;11.816;2024-01-10T11:16:02;102594.60;;;4.80
68939;BMP180;59064;45.294;11.816;2024-01-10T11:18:46;102592.00;;;4.70
68939;BMP180;59064;45.294;11.816;2024-01-10T11:21:36;102595.00;;;4.80
68939;BMP180;59064;45.294;11.816;2024-01-10T11:24:05;102596.80;;;5.02
68939;BMP180;59064;45.294;11.816;2024-01-10T11:26:37;102589.60;;;5.20
68939;BMP180;59064;45.294;11.816;2024-01-10T11:29:04;102587.60;;;5.38
68939;BMP180;59064;45.294;11.816;2024-01-10T11:31:31;102593.40;;;5.40
68939;BMP180;59064;45.294;11.816;2024-01-10T11:33:58;102584.20;;;5.30
68939;BMP180;59064;45.294;11.816;2024-01-10T11:36:25;102575.60;;;5.30
68939;BMP180;59064;45.294;11.816;2024-01-10T11:41:23;102574.40;;;5.30
68939;BMP180;59064;45.294;11.816;2024-01-10T11:46:48;102573.80;;;5.20
68939;BMP180;59064;45.294;11.816;2024-01-10T11:49:16;102573.60;;;5.20
68939;BMP180;59064;45.294;11.816;2024-01-10T11:51:43;102574.40;;;5.30
68939;BMP180;59064;45.294;11.816;2024-01-10T11:54:09;102576.60;;;5.32
68939;BMP180;59064;45.294;11.816;2024-01-10T11:56:39;102565.60;;;5.32
68939;BMP180;59064;45.294;11.816;2024-01-10T11:59:10;102560.40;;;5.40
68939;BMP180;59064;45.294;11.816;2024-01-10T12:01:40;102564.00;;;5.48
68939;BMP180;59064;45.294;11.816;2024-01-10T12:04:08;102563.60;;;5.40
68939;BMP180;59064;45.294;11.816;2024-01-10T12:06:37;102564.40;;;5.50
68939;BMP180;59064;45.294;11.816;2024-01-10T12:09:04;102564.60;;;5.56
68939;BMP180;59064;45.294;11.816;2024-01-10T12:11:42;102557.20;;;5.60
68939;BMP180;59064;45.294;11.816;2024-01-10T12:14:10;102550.80;;;5.70
68939;BMP180;59064;45.294;11.816;2024-01-10T12:16:36;102554.80;;;5.80
68939;BMP180;59064;45.294;11.816;2024-01-10T12:19:04;102551.40;;;5.70
68939;BMP180;59064;45.294;11.816;2024-01-10T12:21:30;102545.20;;;5.72
68939;BMP180;59064;45.294;11.816;2024-01-10T12:23:56;102542.40;;;5.80
68939;BMP180;59064;45.294;11.816;2024-01-10T12:26:21;102539.60;;;5.82
68939;BMP180;59064;45.294;11.816;2024-01-10T12:28:59;102541.20;;;5.90
68939;BMP180;59064;45.294;11.816;2024-01-10T12:31:29;102547.80;;;6.00
68939;BMP180;59064;45.294;11.816;2024-01-10T12:33:55;102537.60;;;6.10
68939;BMP180;59064;45.294;11.816;2024-01-10T12:36:21;102542.60;;;6.02
68939;BMP180;59064;45.294;11.816;2024-01-10T12:38:46;102540.40;;;6.04
68939;BMP180;59064;45.294;11.816;2024-01-10T12:41:15;102540.80;;;6.20
68939;BMP180;59064;45.294;11.816;2024-01-10T12:43:42;102535.20;;;6.10
68939;BMP180;59064;45.294;11.816;2024-01-10T12:46:11;102536.40;;;6.10
68939;BMP180;59064;45.294;11.816;2024-01-10T12:48:38;102534.00;;;6.04
68939;BMP180;59064;45.294;11.816;2024-01-10T12:51:10;102527.80;;;6.00
68939;BMP180;59064;45.294;11.816;2024-01-10T12:53:41;102527.40;;;6.00
68939;BMP180;59064;45.294;11.816;2024-01-10T12:56:07;102524.80;;;6.10
68939;BMP180;59064;45.294;11.816;2024-01-10T12:58:34;102525.80;;;6.28
68939;BMP180;59064;45.294;11.816;2024-01-10T13:01:02;102523.40;;;6.30
68939;BMP180;59064;45.294;11.816;2024-01-10T13:03:28;102523.60;;;6.30
68939;BMP180;59064;45.294;11.816;2024-01-10T13:05:54;102525.80;;;6.40
68939;BMP180;59064;45.294;11.816;2024-01-10T13:08:20;102526.80;;;6.40
68939;BMP180;59064;45.294;11.816;2024-01-10T13:10:46;102518.20;;;6.58
68939;BMP180;59064;45.294;11.816;2024-01-10T13:13:12;102517.80;;;6.50
68939;BMP180;59064;45.294;11.816;2024-01-10T13:15:38;102520.20;;;6.40
68939;BMP180;59064;45.294;11.816;2024-01-10T13:18:04;102512.60;;;6.40
68939;BMP180;59064;45.294;11.816;2024-01-10T13:20:30;102521.40;;;6.46
68939;BMP180;59064;45.294;11.816;2024-01-10T13:22:55;102507.40;;;6.48
68939;BMP180;59064;45.294;11.816;2024-01-10T13:25:21;102515.20;;;6.52
68939;BMP180;59064;45.294;11.816;2024-01-10T13:27:52;102516.80;;;6.70
68939;BMP180;59064;45.294;11.816;2024-01-10T13:30:19;102510.80;;;6.90
68939;BMP180;59064;45.294;11.816;2024-01-10T13:32:48;102517.80;;;7.00
68939;BMP180;59064;45.294;11.816;2024-01-10T13:35:14;102509.40;;;7.10
68939;BMP180;59064;45.294;11.816;2024-01-10T13:37:42;102512.00;;;7.10
68939;BMP180;59064;45.294;11.816;2024-01-10T13:40:09;102508.60;;;7.20
68939;BMP180;59064;45.294;11.816;2024-01-10T13:42:39;102506.40;;;7.10
68939;BMP180;59064;45.294;11.816;2024-01-10T13:45:08;102506.20;;;7.00
68939;BMP180;59064;45.294;11.816;2024-01-10T13:47:36;102503.80;;;7.00
68939;BMP180;59064;45.294;11.816;2024-01-10T13:50:07;102501.00;;;7.00
68939;BMP180;59064;45.294;11.816;2024-01-10T13:52:34;102502.80;;;6.90
68939;BMP180;59064;45.294;11.816;2024-01-10T13:55:00;102495.40;;;6.80
68939;BMP180;59064;45.294;11.816;2024-01-10T13:57:26;102497.00;;;6.80
68939;BMP180;59064;45.294;11.816;2024-01-10T13:59:52;102490.60;;;6.60
68939;BMP180;59064;45.294;11.816;2024-01-10T14:02:24;102499.60;;;6.50
68939;BMP180;59064;45.294;11.816;2024-01-10T14:04:51;102499.80;;;6.40